createdAt,value
2023-01-19T00:01:08.000Z,6.67
2023-01-19T00:03:47.683Z,7.00
2023-01-19T00:06:17.941Z,7.00
2023-01-19T00:08:49.880Z,7.17
2023-01-19T00:11:22.954Z,6.83
2023-01-19T00:13:54.216Z,7.03
2023-01-19T00:16:29.341Z,6.83
2023-01-19T00:19:07.986Z,7.20
2023-01-19T00:21:38.727Z,7.10
2023-01-19T00:24:06.453Z,6.40
2023-01-19T00:26:42.089Z,6.83
2023-01-19T00:29:14.530Z,6.40
2023-01-19T00:31:41.092Z,7.20
2023-01-19T00:34:08.321Z,6.40
2023-01-19T00:36:34.825Z,6.13
2023-01-19T00:39:01.262Z,6.50
2023-01-19T00:41:59.875Z,6.10
2023-01-19T00:44:26.328Z,6.43
2023-01-19T00:46:52.807Z,6.03
2023-01-19T00:49:19.196Z,5.23
2023-01-19T00:51:45.614Z,5.57
2023-01-19T00:54:13.180Z,6.23
2023-01-19T00:56:39.645Z,6.40
2023-01-19T00:59:06.111Z,5.97
2023-01-19T01:01:45.173Z,6.27
2023-01-19T01:04:13.519Z,6.57
2023-01-19T01:06:40.065Z,6.27
2023-01-19T01:09:11.757Z,6.20
2023-01-19T01:11:39.892Z,6.10
2023-01-19T01:14:07.269Z,5.43
2023-01-19T01:16:33.910Z,5.90
2023-01-19T01:19:00.353Z,5.40
2023-01-19T01:21:26.865Z,6.83
2023-01-19T01:23:53.244Z,6.87
2023-01-19T01:26:19.640Z,6.20
2023-01-19T01:28:46.110Z,6.27
2023-01-19T01:31:12.792Z,6.33
2023-01-19T01:33:41.740Z,5.80
2023-01-19T01:36:10.190Z,5.87
2023-01-19T01:38:37.199Z,6.63
2023-01-19T01:41:04.557Z,6.33
2023-01-19T01:43:58.667Z,6.73
2023-01-19T01:46:27.528Z,6.30
2023-01-19T01:49:15.663Z,6.37
2023-01-19T01:51:48.460Z,6.40
2023-01-19T01:54:33.013Z,6.13
2023-01-19T01:57:07.111Z,6.70
2023-01-19T01:59:41.974Z,6.70
2023-01-19T02:02:37.566Z,6.40
2023-01-19T02:05:12.601Z,6.47
2023-01-19T02:08:21.360Z,6.20
2023-01-19T02:11:10.677Z,6.30
2023-01-19T02:13:44.300Z,6.47
2023-01-19T02:16:15.256Z,6.93
2023-01-19T02:18:43.338Z,7.27
2023-01-19T02:21:16.490Z,7.90
2023-01-19T02:23:53.477Z,6.70
2023-01-19T02:26:31.080Z,7.30
2023-01-19T02:29:08.857Z,7.03
2023-01-19T02:31:37.343Z,6.53
2023-01-19T02:34:05.051Z,7.03
2023-01-19T02:36:53.477Z,7.30
2023-01-19T02:39:33.819Z,6.90
2023-01-19T02:42:04.314Z,7.27
2023-01-19T02:44:32.274Z,7.40
2023-01-19T02:46:59.124Z,6.80
2023-01-19T02:49:29.997Z,7.20
2023-01-19T02:51:57.620Z,7.17
2023-01-19T02:54:29.975Z,6.43
2023-01-19T02:57:19.352Z,7.27
2023-01-19T02:59:48.783Z,7.30
2023-01-19T03:02:52.796Z,7.57
2023-01-19T03:05:34.076Z,8.03
2023-01-19T03:08:06.440Z,7.17
2023-01-19T03:10:41.039Z,7.93
2023-01-19T03:13:22.196Z,7.53
2023-01-19T03:15:52.848Z,7.23
2023-01-19T03:18:23.079Z,7.30
2023-01-19T03:20:53.354Z,7.73
2023-01-19T03:23:22.200Z,7.67
2023-01-19T03:25:50.380Z,7.80
2023-01-19T03:28:20.112Z,8.13
2023-01-19T03:30:56.395Z,7.90
2023-01-19T03:33:29.262Z,8.03
2023-01-19T03:36:06.437Z,7.53
2023-01-19T03:38:37.485Z,7.23
2023-01-19T03:41:13.937Z,7.57
2023-01-19T03:43:43.053Z,8.27
2023-01-19T03:46:11.258Z,8.10
2023-01-19T03:48:39.179Z,8.20
2023-01-19T03:51:09.294Z,8.10
2023-01-19T03:53:36.752Z,8.37
2023-01-19T03:56:04.231Z,8.37
2023-01-19T03:58:31.577Z,7.60
2023-01-19T04:00:58.936Z,8.23
2023-01-19T04:03:26.080Z,8.53
2023-01-19T04:05:57.329Z,8.33
2023-01-19T04:08:27.443Z,8.90
2023-01-19T04:10:54.534Z,9.03
2023-01-19T04:13:23.793Z,9.23
2023-01-19T04:15:54.103Z,9.03
2023-01-19T04:18:21.238Z,9.63
2023-01-19T04:20:48.206Z,8.83
2023-01-19T04:23:15.458Z,9.87
2023-01-19T04:25:42.817Z,9.50
2023-01-19T04:28:10.293Z,8.70
2023-01-19T04:30:37.619Z,9.03
2023-01-19T04:33:04.482Z,9.23
2023-01-19T04:35:30.898Z,8.67
2023-01-19T04:37:57.274Z,9.70
2023-01-19T04:40:23.756Z,9.83
2023-01-19T04:42:50.951Z,9.33
2023-01-19T04:45:17.391Z,8.87
2023-01-19T04:47:43.861Z,9.37
2023-01-19T04:50:11.702Z,9.13
2023-01-19T04:52:38.269Z,8.77
2023-01-19T04:55:06.164Z,9.67
2023-01-19T04:57:32.703Z,9.00
2023-01-19T04:59:59.206Z,9.53
2023-01-19T05:02:26.213Z,9.37
2023-01-19T05:04:53.225Z,8.97
2023-01-19T05:07:19.681Z,9.13
2023-01-19T05:09:46.143Z,8.93
2023-01-19T05:12:12.749Z,9.10
2023-01-19T05:14:39.263Z,9.00
2023-01-19T05:17:05.775Z,9.40
2023-01-19T05:19:33.284Z,9.20
2023-01-19T05:22:11.093Z,9.33
2023-01-19T05:24:38.074Z,9.33
2023-01-19T05:27:05.242Z,9.30
2023-01-19T05:29:32.318Z,10.37
2023-01-19T05:31:59.326Z,10.10
2023-01-19T05:34:26.555Z,9.50
2023-01-19T05:36:53.862Z,9.40
2023-01-19T05:39:21.319Z,8.57
2023-01-19T05:41:48.129Z,9.40
2023-01-19T05:44:15.490Z,9.63
2023-01-19T05:46:42.491Z,9.27
2023-01-19T05:49:10.120Z,8.83
2023-01-19T05:51:38.611Z,9.90
2023-01-19T05:54:09.245Z,8.87
2023-01-19T05:56:36.144Z,9.17
2023-01-19T05:59:03.138Z,9.63
2023-01-19T06:01:35.089Z,8.73
2023-01-19T06:04:03.514Z,9.57
2023-01-19T06:06:33.516Z,8.47
2023-01-19T06:09:00.624Z,8.50
2023-01-19T06:11:30.439Z,9.70
2023-01-19T06:14:06.380Z,9.30
2023-01-19T06:16:36.502Z,9.20
2023-01-19T06:19:03.596Z,8.83
2023-01-19T06:21:32.317Z,9.27
2023-01-19T06:23:58.776Z,10.07
2023-01-19T06:26:26.159Z,8.97
2023-01-19T06:28:52.610Z,9.10
2023-01-19T06:31:19.170Z,8.43
2023-01-19T06:33:45.735Z,9.07
2023-01-19T06:36:12.214Z,9.57
2023-01-19T06:38:38.615Z,9.77
2023-01-19T06:41:05.523Z,9.30
2023-01-19T06:43:32.695Z,8.63
2023-01-19T06:46:00.496Z,9.23
2023-01-19T06:48:27.077Z,8.60
2023-01-19T06:50:53.457Z,8.67
2023-01-19T06:53:22.142Z,9.30
2023-01-19T06:55:48.747Z,9.50
2023-01-19T06:58:15.231Z,8.80
2023-01-19T07:00:43.019Z,9.57
2023-01-19T07:03:18.950Z,8.60
2023-01-19T07:05:45.492Z,10.37
2023-01-19T07:08:12.139Z,9.50
2023-01-19T07:11:25.799Z,8.57
2023-01-19T07:13:25.198Z,8.37
2023-01-19T07:15:51.668Z,8.43
2023-01-19T07:18:18.203Z,8.07
2023-01-19T07:20:46.943Z,9.70
2023-01-19T07:23:14.015Z,8.50
2023-01-19T07:25:48.941Z,8.43
2023-01-19T07:28:17.992Z,8.97
2023-01-19T07:30:46.361Z,8.37
2023-01-19T07:33:15.539Z,8.13
2023-01-19T07:35:50.171Z,8.50
2023-01-19T07:38:21.309Z,9.00
2023-01-19T07:40:51.152Z,8.63
2023-01-19T07:43:18.319Z,8.20
2023-01-19T07:45:47.220Z,9.10
2023-01-19T07:48:14.316Z,8.57
2023-01-19T07:50:41.313Z,9.10
2023-01-19T07:53:14.695Z,8.40
2023-01-19T07:55:41.497Z,8.13
2023-01-19T07:58:08.625Z,9.17
2023-01-19T08:00:37.149Z,8.87
2023-01-19T08:03:05.288Z,8.63
2023-01-19T08:05:33.341Z,8.57
2023-01-19T08:08:00.425Z,9.23
2023-01-19T08:10:31.201Z,8.20
2023-01-19T08:12:59.666Z,7.57
2023-01-19T08:15:27.365Z,7.50
2023-01-19T08:18:03.765Z,7.40
2023-01-19T08:20:33.792Z,7.63
2023-01-19T08:23:02.308Z,7.87
2023-01-19T08:25:42.368Z,7.80
2023-01-19T08:28:11.139Z,7.77
2023-01-19T08:30:38.949Z,8.40
2023-01-19T08:33:08.411Z,7.50
2023-01-19T08:35:40.671Z,7.50
2023-01-19T08:38:17.776Z,7.77
2023-01-19T08:40:44.788Z,7.27
2023-01-19T08:43:14.377Z,7.20
2023-01-19T08:45:49.254Z,7.60
2023-01-19T08:48:21.932Z,7.53
2023-01-19T08:50:53.352Z,7.43
2023-01-19T08:53:23.971Z,7.43
2023-01-19T08:56:00.384Z,6.37
2023-01-19T08:58:30.973Z,7.17
2023-01-19T09:01:03.925Z,6.80
2023-01-19T09:03:37.134Z,6.60
2023-01-19T09:06:17.303Z,6.40
2023-01-19T09:08:44.324Z,6.60
2023-01-19T09:11:12.165Z,7.50
2023-01-19T09:13:39.633Z,6.67
2023-01-19T09:16:07.829Z,7.07
2023-01-19T09:18:35.429Z,6.47
2023-01-19T09:21:03.903Z,6.67
2023-01-19T09:23:30.484Z,7.03
2023-01-19T09:25:59.565Z,7.13
2023-01-19T09:28:26.557Z,6.70
2023-01-19T09:30:53.214Z,7.10
2023-01-19T09:33:20.212Z,5.97
2023-01-19T09:35:48.402Z,6.40
2023-01-19T09:38:16.735Z,6.53
2023-01-19T09:40:47.508Z,6.57
2023-01-19T09:43:16.910Z,6.60
2023-01-19T09:45:47.801Z,5.90
2023-01-19T09:48:57.710Z,6.03
2023-01-19T09:51:32.772Z,5.80
2023-01-19T09:54:14.446Z,6.93
2023-01-19T09:56:41.765Z,6.93
2023-01-19T09:59:17.840Z,6.27
2023-01-19T10:01:59.341Z,6.50
2023-01-19T10:04:39.557Z,6.47
2023-01-19T10:07:35.211Z,6.17
2023-01-19T10:10:27.906Z,5.83
2023-01-19T10:12:57.716Z,6.80
2023-01-19T10:15:42.963Z,5.80
2023-01-19T10:18:36.056Z,6.30
2023-01-19T10:21:11.702Z,5.67
2023-01-19T10:24:07.221Z,5.57
2023-01-19T10:26:56.163Z,5.47
2023-01-19T10:29:36.621Z,6.57
2023-01-19T10:32:33.637Z,5.87
2023-01-19T10:35:03.411Z,6.23
2023-01-19T10:37:40.797Z,7.17
2023-01-19T10:40:13.974Z,6.33
2023-01-19T10:42:42.617Z,5.80
2023-01-19T10:45:17.864Z,5.80
2023-01-19T10:47:46.904Z,6.27
2023-01-19T10:50:29.872Z,5.20
2023-01-19T10:52:59.918Z,5.33
2023-01-19T10:55:38.686Z,5.93
2023-01-19T10:58:26.694Z,5.57
2023-01-19T11:00:53.901Z,5.93
2023-01-19T11:03:32.065Z,5.93
2023-01-19T11:06:24.270Z,5.50
2023-01-19T11:08:52.588Z,6.47
2023-01-19T11:11:21.529Z,6.23
2023-01-19T11:14:04.819Z,6.83
2023-01-19T11:16:34.738Z,5.43
2023-01-19T11:19:03.129Z,5.77
2023-01-19T11:21:32.057Z,6.47
2023-01-19T11:24:08.908Z,6.30
2023-01-19T11:26:44.936Z,5.97
2023-01-19T11:29:19.145Z,6.30
2023-01-19T11:31:45.883Z,5.30
2023-01-19T11:34:44.741Z,6.13
2023-01-19T11:37:17.224Z,6.70
2023-01-19T11:39:49.952Z,6.63
2023-01-19T11:42:17.620Z,5.87
2023-01-19T11:45:05.217Z,5.73
2023-01-19T11:47:45.227Z,6.03
2023-01-19T11:50:30.454Z,6.60
2023-01-19T11:53:24.890Z,6.57
2023-01-19T11:56:15.180Z,6.23
2023-01-19T11:58:47.416Z,5.93
2023-01-19T12:01:27.676Z,6.33
2023-01-19T12:04:04.493Z,6.10
2023-01-19T12:06:34.934Z,6.50
2023-01-19T12:09:20.119Z,5.90
2023-01-19T12:11:55.939Z,6.37
2023-01-19T12:14:34.984Z,6.53
2023-01-19T12:17:20.876Z,6.23
2023-01-19T12:19:59.559Z,6.33
2023-01-19T12:22:32.186Z,5.93
2023-01-19T12:25:15.900Z,6.40
2023-01-19T12:27:53.522Z,6.00
2023-01-19T12:30:29.199Z,6.23
2023-01-19T12:33:20.991Z,5.70
2023-01-19T12:36:01.090Z,7.70
2023-01-19T12:38:46.410Z,6.50
2023-01-19T12:41:28.735Z,6.40
2023-01-19T12:44:16.745Z,6.50
2023-01-19T12:46:54.773Z,6.70
2023-01-19T12:49:24.253Z,7.60
2023-01-19T12:51:53.991Z,6.90
2023-01-19T12:54:32.122Z,6.10
2023-01-19T12:57:09.238Z,6.07
2023-01-19T12:59:40.044Z,6.27
2023-01-19T13:02:26.053Z,5.90
2023-01-19T13:05:20.609Z,5.70
2023-01-19T13:08:02.788Z,6.17
2023-01-19T13:11:02.138Z,6.10
2023-01-19T13:13:40.388Z,6.30
2023-01-19T13:16:19.544Z,6.13
2023-01-19T13:18:48.323Z,6.07
2023-01-19T13:21:32.814Z,6.27
2023-01-19T13:24:07.778Z,6.17
2023-01-19T13:26:38.816Z,6.20
2023-01-19T13:29:05.652Z,6.00
2023-01-19T13:31:41.046Z,6.60
2023-01-19T13:34:14.421Z,6.13
2023-01-19T13:36:46.132Z,6.00
2023-01-19T13:39:26.913Z,6.17
2023-01-19T13:42:00.820Z,7.35
2023-01-19T13:44:42.391Z,6.83
2023-01-19T13:47:17.515Z,6.90
2023-01-19T13:50:04.231Z,7.00
2023-01-19T13:52:34.159Z,7.60
2023-01-19T13:55:07.823Z,7.00
2023-01-19T13:57:43.853Z,7.33
2023-01-19T14:00:16.403Z,7.60
2023-01-19T14:02:57.324Z,7.43
2023-01-19T14:05:48.414Z,7.70
2023-01-19T14:08:20.861Z,7.50
2023-01-19T14:11:02.387Z,8.30
2023-01-19T14:13:41.839Z,7.77
2023-01-19T14:16:34.156Z,7.77
2023-01-19T14:19:04.270Z,7.30
2023-01-19T14:21:55.443Z,8.27
2023-01-19T14:24:48.695Z,7.60
2023-01-19T14:27:43.640Z,8.47
2023-01-19T14:30:32.918Z,7.80
2023-01-19T14:33:00.091Z,8.00
2023-01-19T14:35:27.077Z,8.30
2023-01-19T14:37:56.210Z,8.30
2023-01-19T14:40:24.815Z,7.70
2023-01-19T14:42:53.667Z,7.77
2023-01-19T14:45:35.094Z,8.50
2023-01-19T14:48:21.083Z,8.70
2023-01-19T14:51:03.138Z,8.17
2023-01-19T14:53:46.774Z,8.27
2023-01-19T14:56:30.167Z,7.93
2023-01-19T14:58:58.974Z,9.13
2023-01-19T15:01:34.244Z,8.10
2023-01-19T15:04:06.140Z,8.43
2023-01-19T15:06:42.822Z,9.07
2023-01-19T15:09:12.302Z,8.27
2023-01-19T15:11:39.652Z,8.57
2023-01-19T15:14:06.252Z,8.00
2023-01-19T15:16:34.663Z,8.20
2023-01-19T15:19:01.103Z,9.03
2023-01-19T15:21:27.556Z,9.67
2023-01-19T15:23:55.003Z,9.10
2023-01-19T15:26:23.905Z,8.33
2023-01-19T15:28:50.837Z,8.90
2023-01-19T15:31:23.051Z,9.00
2023-01-19T15:33:49.739Z,9.00
2023-01-19T15:36:21.469Z,9.30
2023-01-19T15:38:50.750Z,8.83
2023-01-19T15:41:23.564Z,9.17
2023-01-19T15:43:50.888Z,8.73
2023-01-19T15:46:20.692Z,9.57
2023-01-19T15:48:47.897Z,8.90
2023-01-19T15:51:16.355Z,9.17
2023-01-19T15:53:44.768Z,9.50
2023-01-19T15:56:19.511Z,9.03
2023-01-19T15:58:45.981Z,8.53
2023-01-19T16:01:17.970Z,8.87
2023-01-19T16:03:45.111Z,9.00
2023-01-19T16:06:12.714Z,9.43
2023-01-19T16:08:39.933Z,9.30
2023-01-19T16:11:24.891Z,8.77
2023-01-19T16:13:51.864Z,8.43
2023-01-19T16:16:20.863Z,8.97
2023-01-19T16:18:48.691Z,8.67
2023-01-19T16:21:16.155Z,9.43
2023-01-19T16:23:42.811Z,9.10
2023-01-19T16:26:34.559Z,9.37
2023-01-19T16:29:10.007Z,8.80
2023-01-19T16:31:41.228Z,9.33
2023-01-19T16:34:08.813Z,9.83
2023-01-19T16:36:40.942Z,9.03
2023-01-19T16:39:13.916Z,9.37
2023-01-19T16:41:42.134Z,9.40
2023-01-19T16:44:30.989Z,9.27
2023-01-19T16:46:57.969Z,8.83
2023-01-19T16:49:28.498Z,9.63
2023-01-19T16:51:57.163Z,9.93
2023-01-19T16:54:27.778Z,9.90
2023-01-19T16:56:56.437Z,9.27
2023-01-19T16:59:24.957Z,9.47
2023-01-19T17:01:52.414Z,9.07
